sensor_id;sensor_type;location;lat;lon;timestamp;P1;durP1;ratioP1;P2;durP2;ratioP2
18947;SDS011;9607;51.600;7.558;2022-11-20T00:00:16;24.43;;;14.87;;
18947;SDS011;9607;51.600;7.558;2022-11-20T00:02:43;23.07;;;15.03;;
18947;SDS011;9607;51.600;7.558;2022-11-20T00:05:09;24.03;;;15.03;;
18947;SDS011;9607;51.600;7.558;2022-11-20T00:07:37;22.57;;;14.77;;
18947;SDS011;9607;51.600;7.558;2022-11-20T00:10:06;25.00;;;15.13;;
18947;SDS011;9607;51.600;7.558;2022-11-20T00:12:33;20.70;;;13.47;;
18947;SDS011;9607;51.600;7.558;2022-11-20T00:15:03;20.50;;;14.07;;
18947;SDS011;9607;51.600;7.558;2022-11-20T00:17:30;18.70;;;13.33;;
18947;SDS011;9607;51.600;7.558;2022-11-20T00:19:57;20.03;;;13.73;;
18947;SDS011;9607;51.600;7.558;2022-11-20T00:22:23;17.90;;;12.63;;
18947;SDS011;9607;51.600;7.558;2022-11-20T00:24:50;19.60;;;13.20;;
18947;SDS011;9607;51.600;7.558;2022-11-20T00:27:19;21.13;;;13.10;;
18947;SDS011;9607;51.600;7.558;2022-11-20T00:29:45;22.73;;;14.40;;
18947;SDS011;9607;51.600;7.558;2022-11-20T00:32:12;20.03;;;12.73;;
18947;SDS011;9607;51.600;7.558;2022-11-20T00:34:39;22.17;;;14.87;;
18947;SDS011;9607;51.600;7.558;2022-11-20T00:37:06;20.60;;;13.67;;
18947;SDS011;9607;51.600;7.558;2022-11-20T00:39:33;21.00;;;14.93;;
18947;SDS011;9607;51.600;7.558;2022-11-20T00:41:59;24.90;;;15.77;;
18947;SDS011;9607;51.600;7.558;2022-11-20T00:44:28;25.40;;;15.40;;
18947;SDS011;9607;51.600;7.558;2022-11-20T00:46:55;21.93;;;14.23;;
18947;SDS011;9607;51.600;7.558;2022-11-20T00:49:22;23.03;;;14.47;;
18947;SDS011;9607;51.600;7.558;2022-11-20T00:51:48;20.00;;;12.60;;
18947;SDS011;9607;51.600;7.558;2022-11-20T00:54:15;21.87;;;14.73;;
18947;SDS011;9607;51.600;7.558;2022-11-20T00:56:42;21.63;;;13.80;;
18947;SDS011;9607;51.600;7.558;2022-11-20T00:59:10;21.37;;;13.47;;
18947;SDS011;9607;51.600;7.558;2022-11-20T01:01:39;26.33;;;16.33;;
18947;SDS011;9607;51.600;7.558;2022-11-20T01:04:05;29.20;;;18.00;;
18947;SDS011;9607;51.600;7.558;2022-11-20T01:06:33;35.57;;;21.23;;
18947;SDS011;9607;51.600;7.558;2022-11-20T01:09:03;33.53;;;18.93;;
18947;SDS011;9607;51.600;7.558;2022-11-20T01:11:32;32.67;;;19.70;;
18947;SDS011;9607;51.600;7.558;2022-11-20T01:14:00;35.53;;;21.77;;
18947;SDS011;9607;51.600;7.558;2022-11-20T01:16:29;31.23;;;19.47;;
18947;SDS011;9607;51.600;7.558;2022-11-20T01:19:00;30.23;;;19.57;;
18947;SDS011;9607;51.600;7.558;2022-11-20T01:21:29;33.53;;;20.67;;
18947;SDS011;9607;51.600;7.558;2022-11-20T01:23:57;33.13;;;21.53;;
18947;SDS011;9607;51.600;7.558;2022-11-20T01:26:26;28.17;;;18.80;;
18947;SDS011;9607;51.600;7.558;2022-11-20T01:28:54;27.23;;;17.57;;
18947;SDS011;9607;51.600;7.558;2022-11-20T01:31:22;29.13;;;18.77;;
18947;SDS011;9607;51.600;7.558;2022-11-20T01:33:51;30.73;;;19.47;;
18947;SDS011;9607;51.600;7.558;2022-11-20T01:36:22;28.30;;;18.93;;
18947;SDS011;9607;51.600;7.558;2022-11-20T01:38:51;29.03;;;18.50;;
18947;SDS011;9607;51.600;7.558;2022-11-20T01:41:18;32.73;;;19.70;;
18947;SDS011;9607;51.600;7.558;2022-11-20T01:44:00;28.80;;;19.20;;
18947;SDS011;9607;51.600;7.558;2022-11-20T01:46:28;28.87;;;20.30;;
18947;SDS011;9607;51.600;7.558;2022-11-20T01:48:56;27.17;;;19.53;;
18947;SDS011;9607;51.600;7.558;2022-11-20T01:51:32;30.77;;;20.00;;
18947;SDS011;9607;51.600;7.558;2022-11-20T01:54:02;27.33;;;19.03;;
18947;SDS011;9607;51.600;7.558;2022-11-20T01:56:33;28.10;;;18.60;;
18947;SDS011;9607;51.600;7.558;2022-11-20T01:59:04;24.90;;;17.65;;
18947;SDS011;9607;51.600;7.558;2022-11-20T02:01:33;26.55;;;17.85;;
18947;SDS011;9607;51.600;7.558;2022-11-20T02:04:03;24.77;;;16.50;;
18947;SDS011;9607;51.600;7.558;2022-11-20T02:06:32;25.73;;;18.13;;
18947;SDS011;9607;51.600;7.558;2022-11-20T02:09:04;28.60;;;18.55;;
18947;SDS011;9607;51.600;7.558;2022-11-20T02:11:31;27.60;;;18.63;;
18947;SDS011;9607;51.600;7.558;2022-11-20T02:13:58;24.77;;;16.73;;
18947;SDS011;9607;51.600;7.558;2022-11-20T02:16:26;26.80;;;17.97;;
18947;SDS011;9607;51.600;7.558;2022-11-20T02:18:57;27.67;;;19.40;;
18947;SDS011;9607;51.600;7.558;2022-11-20T02:21:28;27.67;;;19.00;;
18947;SDS011;9607;51.600;7.558;2022-11-20T02:24:03;27.55;;;18.13;;
18947;SDS011;9607;51.600;7.558;2022-11-20T02:26:34;32.20;;;21.80;;
18947;SDS011;9607;51.600;7.558;2022-11-20T02:29:08;27.00;;;18.40;;
18947;SDS011;9607;51.600;7.558;2022-11-20T02:31:36;25.33;;;17.13;;
18947;SDS011;9607;51.600;7.558;2022-11-20T02:34:06;25.63;;;17.55;;
18947;SDS011;9607;51.600;7.558;2022-11-20T02:36:33;26.95;;;18.73;;
18947;SDS011;9607;51.600;7.558;2022-11-20T02:39:06;26.20;;;18.23;;
18947;SDS011;9607;51.600;7.558;2022-11-20T02:41:36;25.95;;;17.58;;
18947;SDS011;9607;51.600;7.558;2022-11-20T02:44:04;25.23;;;17.23;;
18947;SDS011;9607;51.600;7.558;2022-11-20T02:46:31;26.25;;;18.23;;
18947;SDS011;9607;51.600;7.558;2022-11-20T02:49:00;25.20;;;17.88;;
18947;SDS011;9607;51.600;7.558;2022-11-20T02:51:27;23.73;;;16.42;;
18947;SDS011;9607;51.600;7.558;2022-11-20T02:53:55;22.00;;;16.45;;
18947;SDS011;9607;51.600;7.558;2022-11-20T02:56:23;23.52;;;16.33;;
18947;SDS011;9607;51.600;7.558;2022-11-20T02:58:50;22.38;;;16.13;;
18947;SDS011;9607;51.600;7.558;2022-11-20T03:01:17;20.60;;;15.18;;
18947;SDS011;9607;51.600;7.558;2022-11-20T03:03:44;23.65;;;16.90;;
18947;SDS011;9607;51.600;7.558;2022-11-20T03:06:13;25.15;;;17.73;;
18947;SDS011;9607;51.600;7.558;2022-11-20T03:08:40;24.58;;;17.67;;
18947;SDS011;9607;51.600;7.558;2022-11-20T03:11:07;24.92;;;17.42;;
18947;SDS011;9607;51.600;7.558;2022-11-20T03:13:36;25.98;;;18.25;;
18947;SDS011;9607;51.600;7.558;2022-11-20T03:16:07;22.38;;;15.45;;
18947;SDS011;9607;51.600;7.558;2022-11-20T03:18:35;20.65;;;15.60;;
18947;SDS011;9607;51.600;7.558;2022-11-20T03:21:02;26.48;;;18.52;;
18947;SDS011;9607;51.600;7.558;2022-11-20T03:23:30;22.95;;;16.75;;
18947;SDS011;9607;51.600;7.558;2022-11-20T03:26:06;23.98;;;15.68;;
18947;SDS011;9607;51.600;7.558;2022-11-20T03:28:36;22.58;;;14.90;;
18947;SDS011;9607;51.600;7.558;2022-11-20T03:31:10;22.27;;;15.95;;
18947;SDS011;9607;51.600;7.558;2022-11-20T03:33:37;23.90;;;15.43;;
18947;SDS011;9607;51.600;7.558;2022-11-20T03:36:06;20.27;;;14.90;;
18947;SDS011;9607;51.600;7.558;2022-11-20T03:38:34;20.02;;;14.52;;
18947;SDS011;9607;51.600;7.558;2022-11-20T03:41:02;21.15;;;14.35;;
18947;SDS011;9607;51.600;7.558;2022-11-20T03:43:30;22.63;;;15.00;;
18947;SDS011;9607;51.600;7.558;2022-11-20T03:45:59;20.92;;;14.77;;
18947;SDS011;9607;51.600;7.558;2022-11-20T03:48:26;25.92;;;17.42;;
18947;SDS011;9607;51.600;7.558;2022-11-20T03:50:54;24.33;;;17.13;;
18947;SDS011;9607;51.600;7.558;2022-11-20T03:53:32;21.73;;;15.65;;
18947;SDS011;9607;51.600;7.558;2022-11-20T03:55:59;24.02;;;16.67;;
18947;SDS011;9607;51.600;7.558;2022-11-20T03:58:26;23.75;;;16.15;;
18947;SDS011;9607;51.600;7.558;2022-11-20T04:00:55;23.70;;;16.98;;
18947;SDS011;9607;51.600;7.558;2022-11-20T04:03:23;24.10;;;17.75;;
18947;SDS011;9607;51.600;7.558;2022-11-20T04:05:51;20.95;;;14.73;;
18947;SDS011;9607;51.600;7.558;2022-11-20T04:08:18;21.48;;;15.63;;
18947;SDS011;9607;51.600;7.558;2022-11-20T04:10:45;18.98;;;14.07;;
18947;SDS011;9607;51.600;7.558;2022-11-20T04:13:11;20.15;;;15.30;;
18947;SDS011;9607;51.600;7.558;2022-11-20T04:15:38;19.90;;;13.88;;
18947;SDS011;9607;51.600;7.558;2022-11-20T04:18:05;18.30;;;13.50;;
18947;SDS011;9607;51.600;7.558;2022-11-20T04:20:33;20.60;;;13.82;;
18947;SDS011;9607;51.600;7.558;2022-11-20T04:23:01;20.85;;;15.55;;
18947;SDS011;9607;51.600;7.558;2022-11-20T04:25:28;23.98;;;14.90;;
18947;SDS011;9607;51.600;7.558;2022-11-20T04:27:55;17.92;;;13.10;;
18947;SDS011;9607;51.600;7.558;2022-11-20T04:30:22;17.58;;;12.73;;
18947;SDS011;9607;51.600;7.558;2022-11-20T04:32:48;17.48;;;12.02;;
18947;SDS011;9607;51.600;7.558;2022-11-20T04:35:15;20.50;;;13.95;;
18947;SDS011;9607;51.600;7.558;2022-11-20T04:37:43;16.35;;;11.75;;
18947;SDS011;9607;51.600;7.558;2022-11-20T04:40:11;16.83;;;13.05;;
18947;SDS011;9607;51.600;7.558;2022-11-20T04:42:38;18.60;;;12.70;;
18947;SDS011;9607;51.600;7.558;2022-11-20T04:45:05;18.08;;;12.82;;
18947;SDS011;9607;51.600;7.558;2022-11-20T04:47:32;18.00;;;13.40;;
18947;SDS011;9607;51.600;7.558;2022-11-20T04:49:59;17.10;;;12.10;;
18947;SDS011;9607;51.600;7.558;2022-11-20T04:52:26;19.25;;;12.85;;
18947;SDS011;9607;51.600;7.558;2022-11-20T04:54:54;14.38;;;11.70;;
18947;SDS011;9607;51.600;7.558;2022-11-20T04:57:21;16.67;;;12.63;;
18947;SDS011;9607;51.600;7.558;2022-11-20T04:59:48;17.60;;;12.70;;
18947;SDS011;9607;51.600;7.558;2022-11-20T05:02:15;17.20;;;12.18;;
18947;SDS011;9607;51.600;7.558;2022-11-20T05:04:41;17.98;;;13.02;;
18947;SDS011;9607;51.600;7.558;2022-11-20T05:07:08;17.15;;;13.05;;
18947;SDS011;9607;51.600;7.558;2022-11-20T05:09:35;17.15;;;13.52;;
18947;SDS011;9607;51.600;7.558;2022-11-20T05:12:04;17.27;;;12.03;;
18947;SDS011;9607;51.600;7.558;2022-11-20T05:14:33;19.07;;;13.33;;
18947;SDS011;9607;51.600;7.558;2022-11-20T05:17:00;18.40;;;12.82;;
18947;SDS011;9607;51.600;7.558;2022-11-20T05:19:26;17.40;;;12.43;;
18947;SDS011;9607;51.600;7.558;2022-11-20T05:21:53;19.13;;;13.38;;
18947;SDS011;9607;51.600;7.558;2022-11-20T05:24:22;18.20;;;13.57;;
18947;SDS011;9607;51.600;7.558;2022-11-20T05:26:49;20.63;;;14.67;;
18947;SDS011;9607;51.600;7.558;2022-11-20T05:29:17;17.83;;;12.97;;
18947;SDS011;9607;51.600;7.558;2022-11-20T05:31:44;24.03;;;16.30;;
18947;SDS011;9607;51.600;7.558;2022-11-20T05:34:10;19.80;;;13.70;;
18947;SDS011;9607;51.600;7.558;2022-11-20T05:36:37;20.58;;;14.52;;
18947;SDS011;9607;51.600;7.558;2022-11-20T05:39:04;21.83;;;14.57;;
18947;SDS011;9607;51.600;7.558;2022-11-20T05:41:32;20.23;;;13.50;;
18947;SDS011;9607;51.600;7.558;2022-11-20T05:43:59;18.53;;;12.90;;
18947;SDS011;9607;51.600;7.558;2022-11-20T05:46:27;18.43;;;12.77;;
18947;SDS011;9607;51.600;7.558;2022-11-20T05:48:57;18.00;;;12.37;;
18947;SDS011;9607;51.600;7.558;2022-11-20T05:51:26;19.23;;;14.40;;
18947;SDS011;9607;51.600;7.558;2022-11-20T05:53:54;23.33;;;14.77;;
18947;SDS011;9607;51.600;7.558;2022-11-20T05:56:23;22.40;;;14.37;;
18947;SDS011;9607;51.600;7.558;2022-11-20T05:58:50;21.37;;;14.70;;
18947;SDS011;9607;51.600;7.558;2022-11-20T06:01:17;23.83;;;15.77;;
18947;SDS011;9607;51.600;7.558;2022-11-20T06:03:46;22.17;;;14.63;;
18947;SDS011;9607;51.600;7.558;2022-11-20T06:06:15;19.70;;;13.83;;
18947;SDS011;9607;51.600;7.558;2022-11-20T06:08:43;19.83;;;14.82;;
18947;SDS011;9607;51.600;7.558;2022-11-20T06:11:11;19.90;;;13.43;;
18947;SDS011;9607;51.600;7.558;2022-11-20T06:13:39;23.60;;;16.63;;
18947;SDS011;9607;51.600;7.558;2022-11-20T06:16:07;22.93;;;15.37;;
18947;SDS011;9607;51.600;7.558;2022-11-20T06:18:34;21.93;;;15.00;;
18947;SDS011;9607;51.600;7.558;2022-11-20T06:21:04;23.93;;;15.60;;
18947;SDS011;9607;51.600;7.558;2022-11-20T06:23:32;22.87;;;16.20;;
18947;SDS011;9607;51.600;7.558;2022-11-20T06:26:01;21.17;;;14.70;;
18947;SDS011;9607;51.600;7.558;2022-11-20T06:28:29;23.67;;;15.00;;
18947;SDS011;9607;51.600;7.558;2022-11-20T06:30:56;23.50;;;15.07;;
18947;SDS011;9607;51.600;7.558;2022-11-20T06:33:23;23.43;;;15.07;;
18947;SDS011;9607;51.600;7.558;2022-11-20T06:35:50;21.70;;;15.13;;
18947;SDS011;9607;51.600;7.558;2022-11-20T06:38:19;22.97;;;16.80;;
18947;SDS011;9607;51.600;7.558;2022-11-20T06:40:46;29.80;;;19.50;;
18947;SDS011;9607;51.600;7.558;2022-11-20T06:43:12;25.73;;;17.77;;
18947;SDS011;9607;51.600;7.558;2022-11-20T06:45:40;37.67;;;24.53;;
18947;SDS011;9607;51.600;7.558;2022-11-20T06:48:07;28.27;;;19.83;;
18947;SDS011;9607;51.600;7.558;2022-11-20T06:50:35;29.27;;;18.40;;
18947;SDS011;9607;51.600;7.558;2022-11-20T06:53:03;27.70;;;18.67;;
18947;SDS011;9607;51.600;7.558;2022-11-20T06:55:32;24.83;;;18.05;;
18947;SDS011;9607;51.600;7.558;2022-11-20T06:57:59;23.45;;;16.95;;
18947;SDS011;9607;51.600;7.558;2022-11-20T07:00:25;23.80;;;16.92;;
18947;SDS011;9607;51.600;7.558;2022-11-20T07:02:53;23.10;;;16.33;;
18947;SDS011;9607;51.600;7.558;2022-11-20T07:05:20;20.77;;;15.07;;
18947;SDS011;9607;51.600;7.558;2022-11-20T07:07:47;23.15;;;16.25;;
18947;SDS011;9607;51.600;7.558;2022-11-20T07:10:13;24.63;;;15.65;;
18947;SDS011;9607;51.600;7.558;2022-11-20T07:12:42;22.50;;;15.45;;
18947;SDS011;9607;51.600;7.558;2022-11-20T07:15:14;21.10;;;14.98;;
18947;SDS011;9607;51.600;7.558;2022-11-20T07:17:41;20.35;;;14.27;;
18947;SDS011;9607;51.600;7.558;2022-11-20T07:20:08;19.90;;;14.10;;
18947;SDS011;9607;51.600;7.558;2022-11-20T07:22:36;19.40;;;13.98;;
18947;SDS011;9607;51.600;7.558;2022-11-20T07:25:04;21.00;;;14.68;;
18947;SDS011;9607;51.600;7.558;2022-11-20T07:27:31;22.83;;;16.17;;
18947;SDS011;9607;51.600;7.558;2022-11-20T07:30:00;22.80;;;15.65;;
18947;SDS011;9607;51.600;7.558;2022-11-20T07:32:26;20.07;;;14.97;;
18947;SDS011;9607;51.600;7.558;2022-11-20T07:34:53;21.70;;;15.07;;
18947;SDS011;9607;51.600;7.558;2022-11-20T07:37:20;20.40;;;14.90;;
18947;SDS011;9607;51.600;7.558;2022-11-20T07:39:47;23.00;;;14.83;;
18947;SDS011;9607;51.600;7.558;2022-11-20T07:42:14;20.93;;;14.13;;
18947;SDS011;9607;51.600;7.558;2022-11-20T07:44:41;19.20;;;12.77;;
18947;SDS011;9607;51.600;7.558;2022-11-20T07:47:09;18.73;;;12.43;;
18947;SDS011;9607;51.600;7.558;2022-11-20T07:49:36;17.77;;;12.73;;
18947;SDS011;9607;51.600;7.558;2022-11-20T07:52:03;20.43;;;12.90;;
18947;SDS011;9607;51.600;7.558;2022-11-20T07:54:29;19.25;;;13.60;;
18947;SDS011;9607;51.600;7.558;2022-11-20T07:56:56;18.20;;;13.53;;
18947;SDS011;9607;51.600;7.558;2022-11-20T07:59:23;19.52;;;13.25;;
18947;SDS011;9607;51.600;7.558;2022-11-20T08:01:50;17.85;;;12.98;;
18947;SDS011;9607;51.600;7.558;2022-11-20T08:04:18;18.95;;;13.07;;
18947;SDS011;9607;51.600;7.558;2022-11-20T08:06:45;18.45;;;12.82;;
18947;SDS011;9607;51.600;7.558;2022-11-20T08:09:12;19.80;;;13.65;;
18947;SDS011;9607;51.600;7.558;2022-11-20T08:11:39;16.52;;;12.18;;
18947;SDS011;9607;51.600;7.558;2022-11-20T08:14:23;18.50;;;12.85;;
18947;SDS011;9607;51.600;7.558;2022-11-20T08:16:52;19.15;;;13.90;;
18947;SDS011;9607;51.600;7.558;2022-11-20T08:19:20;17.98;;;12.75;;
18947;SDS011;9607;51.600;7.558;2022-11-20T08:21:47;17.63;;;13.13;;
18947;SDS011;9607;51.600;7.558;2022-11-20T08:24:14;18.85;;;13.50;;
18947;SDS011;9607;51.600;7.558;2022-11-20T08:26:41;23.15;;;16.50;;
18947;SDS011;9607;51.600;7.558;2022-11-20T08:29:08;22.25;;;15.20;;
18947;SDS011;9607;51.600;7.558;2022-11-20T08:31:35;19.33;;;13.98;;
18947;SDS011;9607;51.600;7.558;2022-11-20T08:34:02;21.15;;;14.90;;
18947;SDS011;9607;51.600;7.558;2022-11-20T08:36:32;21.48;;;14.77;;
18947;SDS011;9607;51.600;7.558;2022-11-20T08:39:02;19.83;;;14.88;;
18947;SDS011;9607;51.600;7.558;2022-11-20T08:41:29;17.05;;;12.80;;
18947;SDS011;9607;51.600;7.558;2022-11-20T08:43:58;19.92;;;14.50;;
18947;SDS011;9607;51.600;7.558;2022-11-20T08:46:27;18.73;;;14.70;;
18947;SDS011;9607;51.600;7.558;2022-11-20T08:48:58;21.65;;;15.98;;
18947;SDS011;9607;51.600;7.558;2022-11-20T08:51:25;19.52;;;13.98;;
18947;SDS011;9607;51.600;7.558;2022-11-20T08:53:53;23.05;;;15.48;;
18947;SDS011;9607;51.600;7.558;2022-11-20T08:56:20;20.40;;;14.73;;
18947;SDS011;9607;51.600;7.558;2022-11-20T08:58:46;20.23;;;14.23;;
18947;SDS011;9607;51.600;7.558;2022-11-20T09:01:13;21.38;;;15.35;;
18947;SDS011;9607;51.600;7.558;2022-11-20T09:03:40;20.58;;;13.88;;
18947;SDS011;9607;51.600;7.558;2022-11-20T09:06:07;20.60;;;13.65;;
18947;SDS011;9607;51.600;7.558;2022-11-20T09:08:34;20.38;;;14.52;;
18947;SDS011;9607;51.600;7.558;2022-11-20T09:11:03;21.92;;;14.68;;
18947;SDS011;9607;51.600;7.558;2022-11-20T09:13:31;20.10;;;14.95;;
18947;SDS011;9607;51.600;7.558;2022-11-20T09:15:59;21.25;;;14.70;;
18947;SDS011;9607;51.600;7.558;2022-11-20T09:18:28;20.85;;;15.05;;
18947;SDS011;9607;51.600;7.558;2022-11-20T09:20:56;19.52;;;14.43;;
18947;SDS011;9607;51.600;7.558;2022-11-20T09:23:24;22.48;;;15.95;;
18947;SDS011;9607;51.600;7.558;2022-11-20T09:25:51;18.65;;;13.65;;
18947;SDS011;9607;51.600;7.558;2022-11-20T09:28:21;21.48;;;14.10;;
18947;SDS011;9607;51.600;7.558;2022-11-20T09:30:48;23.27;;;14.75;;
18947;SDS011;9607;51.600;7.558;2022-11-20T09:33:15;23.20;;;16.00;;
18947;SDS011;9607;51.600;7.558;2022-11-20T09:35:42;21.00;;;14.60;;
18947;SDS011;9607;51.600;7.558;2022-11-20T09:38:10;19.42;;;14.50;;
18947;SDS011;9607;51.600;7.558;2022-11-20T09:40:39;19.05;;;13.80;;
18947;SDS011;9607;51.600;7.558;2022-11-20T09:43:11;19.48;;;13.93;;
18947;SDS011;9607;51.600;7.558;2022-11-20T09:45:48;17.25;;;13.32;;
18947;SDS011;9607;51.600;7.558;2022-11-20T09:48:29;15.88;;;13.35;;
18947;SDS011;9607;51.600;7.558;2022-11-20T09:51:09;19.92;;;14.07;;
18947;SDS011;9607;51.600;7.558;2022-11-20T09:53:52;17.33;;;13.73;;
18947;SDS011;9607;51.600;7.558;2022-11-20T09:56:29;19.92;;;14.68;;
18947;SDS011;9607;51.600;7.558;2022-11-20T09:58:57;19.63;;;14.10;;
18947;SDS011;9607;51.600;7.558;2022-11-20T10:01:32;21.50;;;15.27;;
18947;SDS011;9607;51.600;7.558;2022-11-20T10:04:03;20.10;;;13.95;;
18947;SDS011;9607;51.600;7.558;2022-11-20T10:06:37;18.52;;;14.40;;
18947;SDS011;9607;51.600;7.558;2022-11-20T10:09:14;17.95;;;13.85;;
18947;SDS011;9607;51.600;7.558;2022-11-20T10:11:48;20.63;;;14.90;;
18947;SDS011;9607;51.600;7.558;2022-11-20T10:14:26;18.27;;;13.80;;
18947;SDS011;9607;51.600;7.558;2022-11-20T10:17:08;17.50;;;12.85;;
18947;SDS011;9607;51.600;7.558;2022-11-20T10:19:47;19.33;;;13.80;;
18947;SDS011;9607;51.600;7.558;2022-11-20T10:22:31;15.00;;;11.60;;
18947;SDS011;9607;51.600;7.558;2022-11-20T10:25:13;15.18;;;12.15;;
18947;SDS011;9607;51.600;7.558;2022-11-20T10:27:48;18.70;;;13.93;;
18947;SDS011;9607;51.600;7.558;2022-11-20T10:30:33;19.15;;;13.68;;
18947;SDS011;9607;51.600;7.558;2022-11-20T10:33:06;17.67;;;13.68;;
18947;SDS011;9607;51.600;7.558;2022-11-20T10:35:40;18.30;;;13.35;;
18947;SDS011;9607;51.600;7.558;2022-11-20T10:38:12;18.27;;;13.43;;
18947;SDS011;9607;51.600;7.558;2022-11-20T10:40:43;15.00;;;11.85;;
18947;SDS011;9607;51.600;7.558;2022-11-20T10:43:13;17.30;;;12.18;;
18947;SDS011;9607;51.600;7.558;2022-11-20T10:45:45;14.60;;;11.55;;
18947;SDS011;9607;51.600;7.558;2022-11-20T10:48:19;20.05;;;15.05;;
18947;SDS011;9607;51.600;7.558;2022-11-20T10:50:54;16.35;;;12.07;;
18947;SDS011;9607;51.600;7.558;2022-11-20T10:53:41;16.52;;;11.98;;
18947;SDS011;9607;51.600;7.558;2022-11-20T10:56:19;16.55;;;12.80;;
18947;SDS011;9607;51.600;7.558;2022-11-20T10:58:52;13.95;;;10.82;;
18947;SDS011;9607;51.600;7.558;2022-11-20T11:01:30;15.15;;;11.60;;
18947;SDS011;9607;51.600;7.558;2022-11-20T11:04:08;23.90;;;17.65;;
18947;SDS011;9607;51.600;7.558;2022-11-20T11:07:04;21.90;;;16.08;;
18947;SDS011;9607;51.600;7.558;2022-11-20T11:09:37;20.65;;;15.57;;
18947;SDS011;9607;51.600;7.558;2022-11-20T11:12:09;19.27;;;14.73;;
18947;SDS011;9607;51.600;7.558;2022-11-20T11:14:42;17.45;;;13.57;;
18947;SDS011;9607;51.600;7.558;2022-11-20T11:17:25;18.60;;;13.32;;
18947;SDS011;9607;51.600;7.558;2022-11-20T11:19:59;19.00;;;14.07;;
18947;SDS011;9607;51.600;7.558;2022-11-20T11:22:28;20.50;;;15.13;;
18947;SDS011;9607;51.600;7.558;2022-11-20T11:24:57;18.25;;;13.32;;
18947;SDS011;9607;51.600;7.558;2022-11-20T11:27:24;19.10;;;13.68;;
18947;SDS011;9607;51.600;7.558;2022-11-20T11:30:01;17.83;;;13.32;;
18947;SDS011;9607;51.600;7.558;2022-11-20T11:32:39;22.30;;;16.17;;
18947;SDS011;9607;51.600;7.558;2022-11-20T11:35:18;22.35;;;17.25;;
18947;SDS011;9607;51.600;7.558;2022-11-20T11:37:49;20.08;;;14.82;;
18947;SDS011;9607;51.600;7.558;2022-11-20T11:40:19;20.40;;;14.52;;
18947;SDS011;9607;51.600;7.558;2022-11-20T11:42:50;20.73;;;14.05;;
18947;SDS011;9607;51.600;7.558;2022-11-20T11:45:23;16.33;;;11.80;;
18947;SDS011;9607;51.600;7.558;2022-11-20T11:47:52;20.60;;;12.98;;
18947;SDS011;9607;51.600;7.558;2022-11-20T11:50:23;15.32;;;11.35;;
18947;SDS011;9607;51.600;7.558;2022-11-20T11:52:56;13.45;;;10.73;;
18947;SDS011;9607;51.600;7.558;2022-11-20T11:55:37;16.95;;;10.85;;
18947;SDS011;9607;51.600;7.558;2022-11-20T11:58:16;14.85;;;11.00;;
18947;SDS011;9607;51.600;7.558;2022-11-20T12:01:02;13.73;;;10.23;;
18947;SDS011;9607;51.600;7.558;2022-11-20T12:03:35;13.30;;;10.65;;
18947;SDS011;9607;51.600;7.558;2022-11-20T12:06:08;10.80;;;8.68;;
18947;SDS011;9607;51.600;7.558;2022-11-20T12:08:40;12.52;;;9.18;;
18947;SDS011;9607;51.600;7.558;2022-11-20T12:11:16;11.35;;;8.20;;
18947;SDS011;9607;51.600;7.558;2022-11-20T12:13:50;12.25;;;8.60;;
18947;SDS011;9607;51.600;7.558;2022-11-20T12:16:24;9.48;;;7.80;;
18947;SDS011;9607;51.600;7.558;2022-11-20T12:18:52;9.25;;;7.63;;
18947;SDS011;9607;51.600;7.558;2022-11-20T12:21:28;9.93;;;8.15;;
18947;SDS011;9607;51.600;7.558;2022-11-20T12:24:11;10.93;;;7.57;;
18947;SDS011;9607;51.600;7.558;2022-11-20T12:27:02;12.30;;;8.80;;
18947;SDS011;9607;51.600;7.558;2022-11-20T12:29:48;10.07;;;7.72;;
18947;SDS011;9607;51.600;7.558;2022-11-20T12:32:35;9.90;;;7.82;;
18947;SDS011;9607;51.600;7.558;2022-11-20T12:35:19;9.45;;;7.85;;
18947;SDS011;9607;51.600;7.558;2022-11-20T12:38:04;11.05;;;8.52;;
18947;SDS011;9607;51.600;7.558;2022-11-20T12:40:56;10.80;;;8.02;;
18947;SDS011;9607;51.600;7.558;2022-11-20T12:43:28;10.93;;;8.95;;
18947;SDS011;9607;51.600;7.558;2022-11-20T12:46:22;8.32;;;7.10;;
18947;SDS011;9607;51.600;7.558;2022-11-20T12:57:05;7.93;;;6.40;;
18947;SDS011;9607;51.600;7.558;2022-11-20T12:59:47;6.68;;;5.65;;
18947;SDS011;9607;51.600;7.558;2022-11-20T13:02:25;6.13;;;5.53;;
18947;SDS011;9607;51.600;7.558;2022-11-20T13:05:13;7.80;;;6.65;;
18947;SDS011;9607;51.600;7.558;2022-11-20T13:07:51;7.90;;;7.10;;
18947;SDS011;9607;51.600;7.558;2022-11-20T13:10:21;10.05;;;7.20;;
18947;SDS011;9607;51.600;7.558;2022-11-20T13:13:05;7.85;;;7.00;;
18947;SDS011;9607;51.600;7.558;2022-11-20T13:15:44;7.20;;;6.18;;
18947;SDS011;9607;51.600;7.558;2022-11-20T13:18:16;8.00;;;6.72;;
18947;SDS011;9607;51.600;7.558;2022-11-20T13:20:47;7.00;;;6.00;;
18947;SDS011;9607;51.600;7.558;2022-11-20T13:23:22;6.40;;;5.63;;
18947;SDS011;9607;51.600;7.558;2022-11-20T13:26:05;7.28;;;6.07;;
18947;SDS011;9607;51.600;7.558;2022-11-20T13:28:41;8.57;;;6.95;;
18947;SDS011;9607;51.600;7.558;2022-11-20T13:31:21;8.15;;;6.63;;
18947;SDS011;9607;51.600;7.558;2022-11-20T13:33:57;7.40;;;6.35;;
18947;SDS011;9607;51.600;7.558;2022-11-20T13:36:27;9.15;;;6.50;;
18947;SDS011;9607;51.600;7.558;2022-11-20T13:38:55;8.55;;;7.38;;
18947;SDS011;9607;51.600;7.558;2022-11-20T13:41:23;9.35;;;8.02;;
18947;SDS011;9607;51.600;7.558;2022-11-20T13:43:58;9.00;;;7.47;;
18947;SDS011;9607;51.600;7.558;2022-11-20T13:46:36;12.02;;;9.30;;
18947;SDS011;9607;51.600;7.558;2022-11-20T13:49:08;10.75;;;9.20;;
18947;SDS011;9607;51.600;7.558;2022-11-20T13:51:51;10.40;;;8.73;;
18947;SDS011;9607;51.600;7.558;2022-11-20T13:54:30;10.15;;;8.15;;
18947;SDS011;9607;51.600;7.558;2022-11-20T13:57:35;10.70;;;9.20;;
18947;SDS011;9607;51.600;7.558;2022-11-20T14:00:28;10.73;;;8.68;;
18947;SDS011;9607;51.600;7.558;2022-11-20T14:03:00;13.13;;;9.98;;
18947;SDS011;9607;51.600;7.558;2022-11-20T14:05:45;13.00;;;10.43;;
18947;SDS011;9607;51.600;7.558;2022-11-20T14:08:18;12.52;;;9.93;;
18947;SDS011;9607;51.600;7.558;2022-11-20T14:11:04;12.38;;;10.07;;
18947;SDS011;9607;51.600;7.558;2022-11-20T14:13:34;13.73;;;10.63;;
18947;SDS011;9607;51.600;7.558;2022-11-20T14:16:08;14.35;;;11.88;;
18947;SDS011;9607;51.600;7.558;2022-11-20T14:18:36;15.20;;;11.38;;
18947;SDS011;9607;51.600;7.558;2022-11-20T14:21:03;12.05;;;10.23;;
18947;SDS011;9607;51.600;7.558;2022-11-20T14:23:32;13.68;;;11.23;;
18947;SDS011;9607;51.600;7.558;2022-11-20T14:26:03;13.13;;;10.38;;
18947;SDS011;9607;51.600;7.558;2022-11-20T14:28:30;12.52;;;10.00;;
18947;SDS011;9607;51.600;7.558;2022-11-20T14:30:58;15.60;;;11.38;;
18947;SDS011;9607;51.600;7.558;2022-11-20T14:33:26;14.50;;;11.05;;
18947;SDS011;9607;51.600;7.558;2022-11-20T14:35:59;12.27;;;9.68;;
18947;SDS011;9607;51.600;7.558;2022-11-20T14:38:26;12.75;;;9.82;;
18947;SDS011;9607;51.600;7.558;2022-11-20T14:41:05;11.77;;;9.90;;
18947;SDS011;9607;51.600;7.558;2022-11-20T14:43:32;12.23;;;9.73;;
18947;SDS011;9607;51.600;7.558;2022-11-20T14:46:02;12.15;;;9.57;;
18947;SDS011;9607;51.600;7.558;2022-11-20T14:48:33;14.43;;;11.35;;
18947;SDS011;9607;51.600;7.558;2022-11-20T14:51:05;13.50;;;10.40;;
18947;SDS011;9607;51.600;7.558;2022-11-20T14:53:37;15.10;;;11.05;;
18947;SDS011;9607;51.600;7.558;2022-11-20T14:56:07;14.50;;;11.30;;
18947;SDS011;9607;51.600;7.558;2022-11-20T14:58:35;14.05;;;10.88;;
18947;SDS011;9607;51.600;7.558;2022-11-20T15:01:03;13.63;;;11.10;;
18947;SDS011;9607;51.600;7.558;2022-11-20T15:03:33;13.15;;;10.02;;
18947;SDS011;9607;51.600;7.558;2022-11-20T15:06:02;14.27;;;10.93;;